Time;durP1;ratioP1;P1;durP2;ratioP2;P2;SDS_P1;SDS_P2;PMS_P1;PMS_P2;Temp;Humidity;BMP_temperature;BMP_pressure;BME280_temperature;BME280_humidity;BME280_pressure;Samples;Min_cycle;Max_cycle;Signal;HPM_P1;HPM_P2
2023/02/17 00:00:10;;;;;;;44.57;20.77;;;10.70;99.90;;;10.94;100.00;101787.16;5074823;28;20437;-62
2023/02/17 00:02:38;;;;;;;40.10;19.63;;;10.70;99.90;;;10.99;100.00;101786.31;5074799;28;20606;-62
2023/02/17 00:05:07;;;;;;;41.95;18.77;;;10.70;99.90;;;10.97;100.00;101785.41;5074496;28;20421;-63
2023/02/17 00:07:36;;;;;;;43.85;19.48;;;10.60;99.90;;;10.92;100.00;101781.81;5073570;28;20045;-63
2023/02/17 00:10:05;;;;;;;44.85;20.83;;;10.60;99.90;;;11.02;100.00;101791.63;5074738;28;20040;-63
2023/02/17 00:12:33;;;;;;;39.63;20.17;;;10.70;99.90;;;11.02;100.00;101799.56;5073331;28;20505;-63
2023/02/17 00:15:05;;;;;;;51.60;21.65;;;10.70;99.90;;;11.03;100.00;101792.53;5074408;28;20060;-63
2023/02/17 00:17:33;;;;;;;44.28;21.67;;;10.70;99.90;;;11.10;100.00;101795.22;5074387;28;20086;-63
2023/02/17 00:20:02;;;;;;;45.63;23.17;;;10.80;99.90;;;11.06;100.00;101793.44;5074257;28;20414;-64
2023/02/17 00:22:30;;;;;;;45.13;22.83;;;10.80;99.90;;;11.05;100.00;101790.78;5074400;28;20039;-63
2023/02/17 00:24:58;;;;;;;47.53;24.13;;;10.80;99.90;;;11.07;100.00;101794.31;5073097;28;20044;-63
2023/02/17 00:27:27;;;;;;;47.20;24.13;;;10.70;99.90;;;10.95;100.00;101787.16;5074270;28;20102;-64
2023/02/17 00:29:55;;;;;;;47.83;23.02;;;10.70;99.90;;;10.50;100.00;101710.00;5072780;28;20039;-63
2023/02/17 00:32:25;;;;;;;44.17;22.27;;;10.60;99.90;;;10.57;100.00;101707.41;5072706;28;20150;-64
2023/02/17 00:34:55;;;;;;;52.75;24.65;;;10.70;99.90;;;10.86;100.00;101773.81;5074037;28;20475;-64
2023/02/17 00:37:23;;;;;;;46.17;23.52;;;10.70;99.90;;;10.81;100.00;101760.56;5074352;28;20430;-63
2023/02/17 00:39:52;;;;;;;47.28;22.30;;;10.60;99.90;;;10.81;100.00;101800.28;5072762;28;20435;-64
2023/02/17 00:42:20;;;;;;;46.55;22.90;;;10.60;99.90;;;10.85;100.00;101782.66;5072662;28;20071;-64
2023/02/17 00:44:48;;;;;;;51.78;24.42;;;10.50;99.90;;;10.89;100.00;101774.75;5072541;28;20091;-64
2023/02/17 00:47:17;;;;;;;47.85;24.02;;;10.60;99.90;;;10.86;100.00;101768.53;5072701;28;20044;-63
2023/02/17 00:49:48;;;;;;;52.63;25.33;;;10.60;99.90;;;10.92;100.00;101775.66;5072678;28;20040;-63
2023/02/17 00:52:17;;;;;;;49.38;24.40;;;10.60;99.90;;;10.93;100.00;101783.63;5073834;28;20395;-63
2023/02/17 00:54:45;;;;;;;55.85;25.63;;;10.60;99.90;;;10.86;100.00;101782.66;5072809;28;20044;-63
2023/02/17 00:57:14;;;;;;;51.78;24.63;;;10.60;99.90;;;10.97;100.00;101766.00;5073488;28;20068;-64
2023/02/17 00:59:42;;;;;;;49.33;24.77;;;10.60;99.90;;;10.89;100.00;101776.50;5073689;28;20132;-63
2023/02/17 01:02:11;;;;;;;59.95;26.25;;;10.60;99.90;;;10.87;100.00;101778.25;5072244;28;20140;-63
2023/02/17 01:04:39;;;;;;;54.67;24.83;;;10.60;99.90;;;10.83;100.00;101782.66;5073467;28;20043;-63
2023/02/17 01:07:09;;;;;;;51.72;25.05;;;10.50;99.90;;;10.87;100.00;101783.56;5073556;28;20119;-63
2023/02/17 01:09:37;;;;;;;54.10;25.83;;;10.60;99.90;;;10.92;100.00;101787.13;5073358;28;20044;-63
2023/02/17 01:12:05;;;;;;;55.35;25.67;;;10.60;99.90;;;10.81;100.00;101776.44;5073321;28;20746;-64
2023/02/17 01:14:34;;;;;;;54.88;26.52;;;10.60;99.90;;;10.81;100.00;101786.13;5073198;28;20486;-63
2023/02/17 01:17:02;;;;;;;54.35;25.70;;;10.50;99.90;;;10.75;100.00;101779.03;5073346;28;20107;-63
2023/02/17 01:19:31;;;;;;;51.22;25.33;;;10.50;99.90;;;10.76;100.00;101780.78;5073206;28;20405;-63
2023/02/17 01:21:59;;;;;;;57.53;25.20;;;10.50;99.90;;;10.81;100.00;101780.84;5073131;28;20131;-63
2023/02/17 01:24:29;;;;;;;48.83;23.48;;;10.50;99.90;;;10.66;100.00;101759.53;5071708;28;20066;-64
2023/02/17 01:26:57;;;;;;;48.70;25.20;;;10.40;99.90;;;10.69;100.00;101754.25;5072097;28;20049;-64
2023/02/17 01:29:27;;;;;;;46.72;22.85;;;10.40;99.90;;;10.81;100.00;101752.63;5071946;28;20052;-63
2023/02/17 01:31:56;;;;;;;45.42;23.38;;;10.50;99.90;;;10.81;100.00;101755.28;5073030;28;20453;-63
2023/02/17 01:34:27;;;;;;;45.10;23.17;;;10.50;99.90;;;10.13;100.00;101647.03;5071644;28;20478;-63
2023/02/17 01:36:55;;;;;;;38.97;20.98;;;10.40;99.90;;;10.76;100.00;101761.41;5072787;28;20490;-63
2023/02/17 01:39:24;;;;;;;45.40;22.88;;;10.40;99.90;;;10.85;100.00;101756.19;5073161;28;20483;-64
2023/02/17 01:41:53;;;;;;;38.28;20.73;;;10.50;99.90;;;10.84;100.00;101764.97;5071717;28;20036;-63
2023/02/17 01:44:24;;;;;;;38.83;19.20;;;10.50;99.90;;;10.84;100.00;101743.81;5071659;28;20049;-63
2023/02/17 01:46:55;;;;;;;38.58;20.27;;;10.50;99.90;;;10.86;100.00;101744.72;5071577;28;20290;-63
2023/02/17 01:49:36;;;;;;;;;;;10.60;99.90;;;10.78;100.00;101754.38;5073254;28;20045;-64
2023/02/17 01:52:10;;;;;;;39.30;21.42;;;10.50;99.90;;;10.76;100.00;101751.69;5071765;28;19963;-64
2023/02/17 01:54:43;;;;;;;39.38;20.33;;;10.50;99.90;;;10.74;100.00;101742.84;5072802;28;20040;-63
2023/02/17 01:57:16;;;;;;;36.20;18.58;;;10.40;99.90;;;10.72;100.00;101756.97;5072668;28;20056;-63
2023/02/17 01:59:46;;;;;;;42.63;21.55;;;10.40;99.90;;;10.69;100.00;101748.97;5071451;28;20049;-63
2023/02/17 02:02:16;;;;;;;41.75;20.67;;;10.40;99.90;;;10.71;100.00;101736.66;5071303;28;20048;-65
2023/02/17 02:04:49;;;;;;;45.63;21.55;;;10.40;99.90;;;10.64;100.00;101746.31;5072071;28;20036;-63
2023/02/17 02:07:21;;;;;;;44.00;22.45;;;10.40;99.90;;;10.63;100.00;101735.69;5071472;28;20150;-63
2023/02/17 02:09:54;;;;;;;47.53;23.10;;;10.40;99.90;;;10.52;100.00;101718.84;5072676;28;20050;-63
2023/02/17 02:12:27;;;;;;;46.35;23.63;;;10.30;99.90;;;10.43;100.00;101734.63;5072491;28;20117;-64
2023/02/17 02:14:59;;;;;;;47.92;23.42;;;10.20;99.90;;;10.57;100.00;101743.56;5072587;28;20048;-63
2023/02/17 02:17:36;;;;;;;45.22;22.63;;;10.30;99.90;;;10.54;100.00;101732.97;5071330;28;20117;-63
2023/02/17 02:20:46;;;;;;;44.88;21.15;;;10.30;99.90;;;10.44;100.00;101726.69;5072310;28;20487;-63
2023/02/17 02:23:54;;;;;;;42.72;21.58;;;10.20;99.90;;;10.49;100.00;101719.69;5072306;28;20041;-64
2023/02/17 02:27:28;;;;;;;48.75;21.63;;;10.20;99.90;;;10.50;100.00;101732.06;5072458;28;20483;-63
2023/02/17 02:30:50;;;;;;;40.47;19.17;;;10.20;99.90;;;10.46;100.00;101721.41;5072595;28;20438;-64
2023/02/17 02:33:33;;;;;;;42.85;20.20;;;10.20;99.90;;;10.38;100.00;101691.34;5072269;28;20040;-63
2023/02/17 02:36:10;;;;;;;43.30;20.05;;;10.20;99.90;;;10.52;100.00;101719.72;5072695;28;20041;-64
2023/02/17 02:38:44;;;;;;;43.38;22.30;;;10.20;99.90;;;10.55;100.00;101710.94;5071180;28;20076;-64
2023/02/17 02:41:17;;;;;;;45.75;22.98;;;10.30;99.90;;;10.51;100.00;101702.06;5071013;28;20062;-64
2023/02/17 02:43:47;;;;;;;50.30;23.63;;;10.30;99.90;;;10.53;100.00;101704.75;5072228;28;20101;-63
2023/02/17 02:46:16;;;;;;;49.47;23.40;;;10.30;99.90;;;10.64;100.00;101696.03;5072231;28;20040;-64
2023/02/17 02:48:47;;;;;;;52.38;23.33;;;10.30;99.90;;;10.65;100.00;101696.91;5071042;28;20051;-64
2023/02/17 02:51:32;;;;;;;43.08;23.02;;;10.40;99.90;;;10.63;100.00;101694.25;5070981;28;20131;-63
2023/02/17 02:54:34;;;;;;;47.13;23.10;;;10.30;99.90;;;10.73;100.00;101693.47;5070841;28;20139;-63
2023/02/17 02:57:20;;;;;;;52.15;23.90;;;10.40;99.90;;;10.74;100.00;101689.06;5072393;28;20119;-64
2023/02/17 03:00:04;;;;;;;53.65;24.05;;;10.40;99.90;;;10.71;100.00;101675.78;5071145;28;20391;-63
2023/02/17 03:02:44;;;;;;;52.30;23.95;;;10.40;99.90;;;10.80;100.00;101673.22;5070728;28;20045;-63
2023/02/17 03:05:22;;;;;;;54.35;23.75;;;10.50;99.90;;;10.80;100.00;101662.66;5070954;28;20420;-64
2023/02/17 03:07:58;;;;;;;51.45;23.88;;;10.50;99.90;;;10.76;100.00;101648.47;5070886;28;20052;-64
2023/02/17 03:10:27;;;;;;;53.92;23.05;;;10.50;99.90;;;10.80;100.00;101650.28;5070869;28;20091;-64
2023/02/17 03:12:56;;;;;;;51.63;24.05;;;10.50;99.90;;;10.78;100.00;101654.69;5070574;28;20127;-64
2023/02/17 03:15:30;;;;;;;49.47;24.25;;;10.50;99.90;;;10.69;100.00;101641.38;5070874;28;20102;-64
2023/02/17 03:18:01;;;;;;;58.40;24.13;;;10.50;99.90;;;10.81;100.00;101661.75;5072716;28;20405;-63
2023/02/17 03:20:36;;;;;;;58.05;22.13;;;10.50;99.90;;;10.91;100.00;101658.31;5075413;28;20379;-63
2023/02/17 03:23:06;;;;;;;55.28;23.38;;;10.60;99.90;;;10.69;100.00;101640.50;5074240;28;20098;-64
2023/02/17 03:25:35;;;;;;;52.85;23.25;;;10.60;99.90;;;10.24;100.00;101527.31;5074205;28;20036;-64
2023/02/17 03:28:04;;;;;;;53.05;22.70;;;10.60;99.90;;;10.85;100.00;101639.75;5074246;28;20049;-64
2023/02/17 03:30:33;;;;;;;52.90;23.90;;;10.60;99.90;;;10.89;100.00;101652.13;5074227;28;20536;-63
2023/02/17 03:33:01;;;;;;;55.88;24.48;;;10.60;99.90;;;10.85;100.00;101647.69;5074060;28;20053;-64
2023/02/17 03:35:31;;;;;;;61.22;26.00;;;10.60;99.90;;;10.92;100.00;101654.78;5075558;28;20094;-64
2023/02/17 03:37:59;;;;;;;59.05;25.70;;;10.60;99.90;;;10.96;100.00;101668.91;5073781;28;20114;-64
2023/02/17 03:40:28;;;;;;;51.83;26.40;;;10.70;99.90;;;10.85;100.00;101655.63;5075144;28;20043;-63
2023/02/17 03:42:57;;;;;;;51.60;26.02;;;10.60;99.90;;;10.92;100.00;101662.72;5075275;28;20041;-64
2023/02/17 03:45:26;;;;;;;59.17;26.50;;;10.60;99.90;;;10.84;100.00;101665.31;5075146;28;20043;-64
2023/02/17 03:47:54;;;;;;;54.65;26.95;;;10.60;99.90;;;10.81;100.00;101665.31;5075031;28;20379;-64
2023/02/17 03:50:22;;;;;;;54.70;26.08;;;10.60;99.90;;;9.42;100.00;101409.47;5074950;28;20064;-64
2023/02/17 03:52:52;;;;;;;61.88;28.50;;;10.60;99.90;;;10.90;100.00;101664.47;5074944;28;20061;-64
2023/02/17 03:55:20;;;;;;;56.25;28.88;;;10.60;99.90;;;10.98;100.00;101662.75;5075024;28;20032;-65
2023/02/17 03:57:49;;;;;;;57.83;28.95;;;10.70;99.90;;;10.82;100.00;101643.25;5074836;28;20382;-67
2023/02/17 04:00:18;;;;;;;58.30;28.45;;;10.70;99.90;;;10.95;100.00;101665.41;5074783;28;20032;-65
2023/02/17 04:02:46;;;;;;;68.00;30.02;;;10.70;99.90;;;10.96;100.00;101666.25;5074758;28;20040;-67
2023/02/17 04:05:15;;;;;;;66.57;32.22;;;10.70;99.90;;;10.97;100.00;101657.47;5074629;28;20406;-64
2023/02/17 04:07:43;;;;;;;57.90;30.75;;;10.70;99.90;;;11.02;100.00;101659.25;5073537;28;20083;-65
2023/02/17 04:10:13;;;;;;;61.97;29.85;;;10.70;99.90;;;11.01;100.00;101665.44;5074735;28;20063;-64
2023/02/17 04:12:41;;;;;;;63.70;29.05;;;10.70;99.90;;;11.03;100.00;101674.28;5073402;28;20182;-63
2023/02/17 04:15:10;;;;;;;57.22;28.85;;;10.70;99.90;;;11.08;100.00;101663.69;5074498;28;20044;-63
2023/02/17 04:17:38;;;;;;;56.65;27.40;;;10.70;99.90;;;10.46;100.00;101568.91;5074296;28;20091;-63
2023/02/17 04:20:08;;;;;;;55.40;27.58;;;10.70;99.90;;;11.10;100.00;101667.25;5074213;28;20123;-63
2023/02/17 04:22:37;;;;;;;60.65;25.23;;;10.80;99.90;;;11.08;100.00;101654.00;5074553;28;20383;-63
2023/02/17 04:25:06;;;;;;;55.47;24.92;;;10.80;99.90;;;11.03;100.00;101670.75;5073340;28;20044;-63
2023/02/17 04:27:35;;;;;;;56.65;24.67;;;10.80;99.90;;;11.02;100.00;101661.91;5074089;28;20041;-71
2023/02/17 04:30:06;;;;;;;59.83;24.63;;;10.80;99.90;;;11.10;100.00;101649.59;5074263;28;20075;-71
2023/02/17 04:32:34;;;;;;;54.50;23.83;;;10.80;99.90;;;11.04;100.00;101654.84;5074585;28;20036;-71
2023/02/17 04:35:03;;;;;;;54.67;24.30;;;10.80;99.90;;;11.01;100.00;101636.31;5074114;28;20107;-71
2023/02/17 04:37:31;;;;;;;66.85;27.00;;;10.70;99.90;;;11.05;100.00;101626.63;5074275;28;20033;-70
2023/02/17 04:39:59;;;;;;;59.20;27.20;;;10.80;99.90;;;11.05;100.00;101626.63;5074057;28;20067;-71
2023/02/17 04:42:28;;;;;;;55.22;26.25;;;10.80;99.90;;;11.03;100.00;101625.75;5074141;28;20035;-71
2023/02/17 04:44:57;;;;;;;57.33;27.67;;;10.80;99.90;;;11.03;100.00;101621.34;5074203;28;20122;-71
2023/02/17 04:47:27;;;;;;;61.67;28.17;;;10.80;99.90;;;11.02;100.00;101606.31;5074408;28;20040;-71
2023/02/17 04:49:55;;;;;;;63.47;28.58;;;10.70;99.90;;;11.05;100.00;101629.28;5073901;28;20036;-71
2023/02/17 04:52:24;;;;;;;67.30;27.98;;;10.80;99.90;;;11.06;100.00;101649.56;5073839;28;20051;-71
2023/02/17 04:54:52;;;;;;;68.65;28.60;;;10.80;99.90;;;10.65;100.00;101577.84;5073505;28;20063;-71
2023/02/17 04:57:20;;;;;;;68.45;27.65;;;10.80;99.90;;;11.11;100.00;101664.59;5072338;28;20139;-71
2023/02/17 04:59:49;;;;;;;73.85;29.40;;;10.80;99.90;;;10.42;100.00;101539.78;5072480;28;20037;-71
2023/02/17 05:02:19;;;;;;;70.18;28.67;;;10.80;99.90;;;11.08;100.00;101648.72;5073714;28;20445;-70
2023/02/17 05:04:47;;;;;;;72.33;30.27;;;10.90;99.90;;;11.10;100.00;101646.97;5072885;28;20044;-71
2023/02/17 05:07:16;;;;;;;76.18;30.23;;;10.80;99.90;;;11.10;100.00;101646.97;5073470;28;20078;-71
2023/02/17 05:09:44;;;;;;;72.18;28.92;;;10.90;99.90;;;11.10;100.00;101652.25;5073790;28;20044;-71
2023/02/17 05:12:12;;;;;;;73.22;32.25;;;10.80;99.90;;;11.16;100.00;101649.66;5073533;28;20032;-71
2023/02/17 05:14:41;;;;;;;81.78;32.30;;;10.90;99.90;;;11.18;100.00;101637.31;5073501;28;20539;-71
2023/02/17 05:17:09;;;;;;;73.65;31.02;;;10.90;99.90;;;11.09;100.00;101645.16;5073415;28;20032;-71
2023/02/17 05:19:39;;;;;;;64.65;30.42;;;10.90;99.90;;;11.21;100.00;101655.84;5073710;28;20467;-71
2023/02/17 05:22:07;;;;;;;70.23;31.43;;;10.90;99.90;;;11.20;100.00;101642.59;5073535;28;20356;-71
2023/02/17 05:24:36;;;;;;;76.47;33.30;;;10.90;99.90;;;11.31;100.00;101640.88;5073306;28;20044;-71
2023/02/17 05:27:06;;;;;;;66.63;30.40;;;11.00;99.90;;;11.11;100.00;101606.34;5072122;28;20049;-72
2023/02/17 05:29:35;;;;;;;59.88;30.30;;;11.00;99.90;;;11.28;100.00;101620.59;5072168;28;20036;-71
2023/02/17 05:32:03;;;;;;;67.72;28.63;;;11.00;99.90;;;11.28;100.00;101619.69;5072154;28;20132;-71
2023/02/17 05:34:32;;;;;;;65.25;26.88;;;11.00;99.90;;;11.26;100.00;101611.75;5073196;28;20040;-71
2023/02/17 05:37:02;;;;;;;55.75;26.25;;;11.00;99.90;;;11.28;100.00;101606.44;5073296;28;20117;-72
2023/02/17 05:39:31;;;;;;;58.92;27.10;;;11.00;99.90;;;11.17;100.00;101585.19;5073181;28;20090;-72
2023/02/17 05:41:59;;;;;;;57.08;25.95;;;11.00;99.90;;;11.23;100.00;101601.13;5071727;28;20439;-71
2023/02/17 05:44:28;;;;;;;58.85;26.98;;;11.00;99.90;;;11.22;100.00;101578.19;5072960;28;20386;-71
2023/02/17 05:46:56;;;;;;;54.05;26.20;;;11.00;99.90;;;11.29;100.00;101593.22;5072916;28;20044;-71
2023/02/17 05:49:25;;;;;;;55.33;25.33;;;11.00;99.90;;;11.27;100.00;101594.97;5072977;28;20042;-71
2023/02/17 05:51:53;;;;;;;51.28;23.95;;;11.00;99.90;;;11.34;100.00;101588.81;5073403;28;20048;-71
2023/02/17 05:54:23;;;;;;;52.80;23.33;;;11.10;99.90;;;11.32;100.00;101587.03;5072165;28;20102;-71
2023/02/17 05:56:52;;;;;;;41.08;20.95;;;11.00;99.90;;;11.25;100.00;101577.28;5072822;28;20391;-71
2023/02/17 05:59:20;;;;;;;45.60;21.17;;;11.10;99.90;;;11.27;100.00;101589.66;5071650;28;20047;-70
2023/02/17 06:01:48;;;;;;;42.15;21.52;;;11.00;99.90;;;11.23;100.00;101579.94;5072806;28;20476;-71
2023/02/17 06:04:17;;;;;;;42.03;20.80;;;11.00;99.90;;;11.22;100.00;101583.47;5071469;28;20438;-70
2023/02/17 06:06:45;;;;;;;37.00;20.20;;;11.00;99.90;;;11.22;100.00;101564.94;5072837;28;20106;-71
2023/02/17 06:09:14;;;;;;;45.15;21.50;;;11.00;99.90;;;11.20;100.00;101574.66;5071187;28;20072;-70
2023/02/17 06:11:43;;;;;;;46.90;22.67;;;11.00;99.90;;;11.24;100.00;101578.19;5072442;28;20124;-71
2023/02/17 06:14:12;;;;;;;51.20;24.63;;;11.00;99.90;;;11.22;100.00;101572.00;5072508;28;20036;-70
2023/02/17 06:16:40;;;;;;;50.35;24.95;;;11.00;99.90;;;11.14;100.00;101579.91;5072847;28;20289;-71
2023/02/17 06:19:09;;;;;;;52.80;25.60;;;10.90;99.90;;;11.17;100.00;101571.97;5072532;28;20067;-71
2023/02/17 06:21:37;;;;;;;54.20;25.83;;;10.90;99.90;;;11.14;100.00;101585.19;5072700;28;20359;-71
2023/02/17 06:24:06;;;;;;;52.75;25.25;;;10.90;99.90;;;11.13;100.00;101577.25;5072566;28;20425;-71
2023/02/17 06:26:34;;;;;;;50.28;25.08;;;10.90;99.90;;;11.22;100.00;101575.53;5072853;28;20127;-70
2023/02/17 06:29:05;;;;;;;50.78;24.13;;;10.90;99.90;;;11.17;100.00;101587.84;5072969;28;20120;-71
2023/02/17 06:31:34;;;;;;;51.78;24.67;;;10.90;99.90;;;11.23;100.00;101595.81;5071613;28;20426;-71
2023/02/17 06:34:02;;;;;;;47.53;22.25;;;10.90;99.90;;;11.04;100.00;101556.91;5071448;28;20131;-70
2023/02/17 06:36:34;;;;;;;52.05;23.25;;;10.90;99.90;;;11.12;100.00;101579.00;5072533;28;20044;-71
2023/02/17 06:39:02;;;;;;;46.05;21.67;;;10.90;99.90;;;11.14;100.00;101556.06;5071222;28;20036;-71
2023/02/17 06:41:30;;;;;;;49.65;22.17;;;10.90;99.90;;;11.07;100.00;101578.09;5072579;28;20049;-70
2023/02/17 06:43:59;;;;;;;48.33;22.05;;;10.90;99.90;;;11.14;100.00;101590.50;5072302;28;20464;-71
2023/02/17 06:46:28;;;;;;;46.70;21.40;;;10.90;99.90;;;11.13;100.00;101564.88;5072285;28;20115;-71
2023/02/17 06:48:58;;;;;;;42.93;21.77;;;10.90;99.90;;;10.49;100.00;101470.19;5072358;28;20094;-71
2023/02/17 06:51:27;;;;;;;37.88;20.95;;;10.90;99.90;;;11.12;100.00;101581.66;5072257;28;20278;-70
2023/02/17 06:53:56;;;;;;;42.90;20.50;;;10.90;99.90;;;11.17;100.00;101582.56;5075777;28;20502;-71
2023/02/17 06:56:24;;;;;;;40.20;19.60;;;10.90;99.90;;;11.13;100.00;101574.59;5075909;28;20033;-71
2023/02/17 06:58:53;;;;;;;39.60;20.25;;;10.90;99.90;;;11.10;100.00;101582.53;5075698;28;20408;-70
2023/02/17 07:01:25;;;;;;;44.42;19.23;;;10.90;99.90;;;11.05;100.00;101564.00;5074738;28;20158;-71
2023/02/17 07:03:55;;;;;;;43.55;19.45;;;10.80;99.90;;;11.12;100.00;101567.53;5075726;28;20036;-71
2023/02/17 07:06:24;;;;;;;42.75;19.15;;;10.90;99.90;;;10.92;100.00;101550.69;5075939;28;20033;-71
2023/02/17 07:08:53;;;;;;;38.60;18.27;;;10.80;99.90;;;10.89;100.00;101554.19;5075930;28;20394;-71
2023/02/17 07:11:23;;;;;;;41.28;18.20;;;10.80;99.90;;;11.15;100.00;101608.13;5074601;28;20036;-70
2023/02/17 07:13:51;;;;;;;34.88;17.38;;;10.90;99.90;;;11.12;100.00;101608.13;5075571;28;20043;-71
2023/02/17 07:16:19;;;;;;;35.08;17.60;;;10.90;99.90;;;11.05;100.00;101598.41;5074453;28;20386;-71
2023/02/17 07:18:48;;;;;;;40.72;19.85;;;10.90;99.90;;;11.02;100.00;101587.78;5074367;28;20044;-71
2023/02/17 07:21:18;;;;;;;40.38;17.58;;;10.80;99.90;;;10.98;100.00;101591.28;5075606;28;20534;-71
2023/02/17 07:23:47;;;;;;;37.90;18.50;;;10.70;99.90;;;10.98;100.00;101593.94;5075775;28;20067;-71
2023/02/17 07:26:15;;;;;;;39.00;17.65;;;10.70;99.90;;;10.84;100.00;101564.75;5075721;28;20274;-71
2023/02/17 07:28:44;;;;;;;42.45;18.40;;;10.70;99.90;;;10.87;100.00;101575.38;5075125;28;20145;-71
2023/02/17 07:31:15;;;;;;;34.40;16.65;;;10.70;99.90;;;11.04;100.00;101609.84;5075757;28;20416;-71
2023/02/17 07:33:46;;;;;;;33.60;16.38;;;10.80;99.90;;;10.98;100.00;101582.44;5075169;28;20056;-71
2023/02/17 07:36:17;;;;;;;39.33;17.30;;;10.70;99.90;;;11.01;100.00;101599.25;5075756;28;20206;-71
2023/02/17 07:38:46;;;;;;;29.60;16.50;;;10.70;99.90;;;10.78;100.00;101550.63;5075054;28;20051;-71
2023/02/17 07:41:16;;;;;;;32.38;16.88;;;10.70;99.90;;;10.97;100.00;101592.19;5073860;28;20127;-72
2023/02/17 07:43:46;;;;;;;36.65;15.73;;;10.70;99.90;;;10.97;100.00;101607.16;5075041;28;20418;-71
2023/02/17 07:46:17;;;;;;;35.10;16.30;;;10.70;99.90;;;10.65;100.00;101531.13;5074035;28;20128;-71
2023/02/17 07:48:46;;;;;;;33.63;15.60;;;10.70;99.90;;;10.99;100.00;101600.13;5074395;28;20131;-71
2023/02/17 07:51:19;;;;;;;30.67;14.95;;;10.70;99.90;;;11.00;100.00;101597.47;5073989;28;20040;-71
2023/02/17 07:53:48;;;;;;;33.35;15.82;;;10.70;99.90;;;11.04;100.00;101601.91;5073820;28;20049;-70
2023/02/17 07:56:20;;;;;;;33.17;14.77;;;10.80;99.90;;;10.98;100.00;101616.84;5075111;28;20032;-68
2023/02/17 07:58:49;;;;;;;33.63;15.60;;;10.70;99.90;;;11.00;100.00;101605.41;5074790;28;20033;-69
2023/02/17 08:01:20;;;;;;;31.92;15.85;;;10.70;99.90;;;10.90;100.00;101596.53;5074650;28;20115;-67
2023/02/17 08:03:50;;;;;;;29.85;15.98;;;10.70;99.90;;;10.99;100.00;101601.00;5074581;28;20036;-67
2023/02/17 08:06:22;;;;;;;36.60;16.25;;;10.80;99.90;;;11.02;100.00;101611.59;5074935;28;20041;-70
2023/02/17 08:14:28;;;;;;;36.47;16.25;;;10.80;99.90;;;11.02;100.00;101646.03;5073636;28;20049;-70
2023/02/17 08:16:57;;;;;;;36.75;18.05;;;10.80;99.90;;;11.09;100.00;101631.06;5074660;28;20091;-68
2023/02/17 08:19:26;;;;;;;34.88;16.65;;;10.80;99.90;;;11.13;100.00;101628.44;5073338;28;20041;-68
2023/02/17 08:22:15;;;;;;;29.92;16.33;;;10.90;99.90;;;11.12;100.00;101634.63;5074609;28;20098;-67
2023/02/17 08:24:44;;;;;;;28.30;15.40;;;10.80;99.90;;;11.13;100.00;101624.91;5074682;28;20044;-71
2023/02/17 08:27:12;;;;;;;30.35;15.25;;;10.90;99.90;;;11.10;100.00;101622.22;5074277;28;20044;-69
2023/02/17 08:29:41;;;;;;;33.58;16.42;;;10.90;99.90;;;11.12;100.00;101624.03;5074605;28;20075;-69
2023/02/17 08:32:10;;;;;;;35.13;15.60;;;10.90;99.90;;;11.08;100.00;101614.28;5074633;28;20050;-68
2023/02/17 08:34:39;;;;;;;33.10;15.25;;;10.90;99.90;;;11.04;100.00;101601.91;5073277;28;20067;-68
2023/02/17 08:37:08;;;;;;;30.65;15.35;;;10.80;99.90;;;11.13;100.00;101633.72;5073162;28;20040;-68
2023/02/17 08:39:38;;;;;;;36.70;15.73;;;10.90;99.90;;;11.19;100.00;101619.66;5074154;28;20383;-68
2023/02/17 08:42:07;;;;;;;33.33;15.93;;;10.90;99.90;;;11.15;100.00;101623.16;5074063;28;20119;-68
2023/02/17 08:44:36;;;;;;;31.65;14.70;;;10.90;99.90;;;11.13;100.00;101612.53;5073902;28;20044;-69
2023/02/17 08:47:06;;;;;;;32.65;15.57;;;10.90;99.90;;;11.26;100.00;101648.81;5072736;28;20048;-69
2023/02/17 08:49:34;;;;;;;33.83;15.43;;;11.00;99.90;;;11.27;100.00;101642.63;5073973;28;20037;-68
2023/02/17 08:52:03;;;;;;;39.80;14.80;;;11.00;99.90;;;11.32;100.00;101645.31;5074088;28;20033;-68
2023/02/17 08:54:32;;;;;;;32.03;16.58;;;11.00;99.90;;;11.27;100.00;101645.28;5072796;28;20044;-68
2023/02/17 08:57:02;;;;;;;30.33;15.48;;;11.10;99.90;;;11.35;100.00;101627.66;5073761;28;20195;-68
2023/02/17 08:59:31;;;;;;;33.67;15.27;;;11.10;99.90;;;11.33;100.00;101640.03;5073635;28;20386;-69
2023/02/17 09:02:00;;;;;;;34.30;15.43;;;11.10;99.90;;;11.28;100.00;101627.63;5073534;28;20720;-72
2023/02/17 09:04:28;;;;;;;27.10;14.55;;;11.10;99.90;;;11.32;100.00;101621.47;5073836;28;20174;-68
2023/02/17 09:06:58;;;;;;;30.08;14.85;;;11.10;99.90;;;11.35;100.00;101635.63;5073759;28;20140;-67
2023/02/17 09:09:27;;;;;;;24.50;14.25;;;11.10;99.90;;;11.39;100.00;101629.44;5074049;28;20043;-67
2023/02/17 09:11:57;;;;;;;30.08;14.65;;;11.10;99.90;;;11.38;100.00;101635.63;5073684;28;20033;-68
2023/02/17 09:14:28;;;;;;;30.30;14.15;;;11.10;99.90;;;11.44;100.00;101675.38;5073022;28;20143;-68
2023/02/17 09:16:57;;;;;;;;;;;11.20;99.90;;;11.48;100.00;101655.97;5072553;28;20067;-67
2023/02/17 09:19:26;;;;;;;27.17;13.60;;;11.20;99.90;;;11.43;100.00;101673.63;5073778;28;19979;-68
2023/02/17 09:21:55;;;;;;;25.70;13.05;;;11.20;99.90;;;11.33;100.00;101661.22;5073241;28;20048;-67
2023/02/17 09:24:25;;;;;;;25.75;12.80;;;11.20;99.90;;;11.50;100.00;101664.81;5073194;28;20398;-68
2023/02/17 09:26:54;;;;;;;22.40;11.98;;;11.20;99.90;;;11.45;100.00;101655.97;5073452;28;20036;-68
2023/02/17 09:29:22;;;;;;;23.50;13.82;;;11.20;99.90;;;11.55;100.00;101647.19;5072139;28;20458;-68
2023/02/17 09:31:52;;;;;;;28.85;13.30;;;11.30;99.90;;;11.61;100.00;101639.25;5072187;28;20044;-69
2023/02/17 09:34:21;;;;;;;23.83;12.45;;;11.30;99.90;;;11.66;100.00;101658.75;5073778;28;20094;-68
2023/02/17 09:36:50;;;;;;;24.45;12.23;;;11.40;99.90;;;11.48;100.00;101620.63;5073584;28;20371;-69
2023/02/17 09:39:18;;;;;;;25.70;12.20;;;11.40;99.90;;;11.62;100.00;101642.78;5073033;28;20423;-64
2023/02/17 09:41:51;;;;;;;25.70;12.25;;;11.40;99.90;;;11.61;100.00;101667.53;5073247;28;20036;-69
2023/02/17 09:44:25;;;;;;;25.77;12.00;;;11.40;99.90;;;11.54;100.00;101645.41;5072014;28;20037;-69
2023/02/17 09:47:05;;;;;;;24.60;12.80;;;11.40;99.90;;;11.63;100.00;101655.19;5073104;28;20379;-70
2023/02/17 09:49:40;;;;;;;24.52;12.73;;;11.30;99.90;;;11.69;100.00;101664.03;5071770;28;20470;-72
2023/02/17 09:52:14;;;;;;;27.27;13.75;;;11.40;99.90;;;11.59;100.00;101666.63;5073062;28;20443;-83
2023/02/17 09:54:57;;;;;;;31.75;13.00;;;11.40;99.90;;;11.69;100.00;101685.25;5072807;28;20090;-69
2023/02/17 09:57:31;;;;;;;26.45;13.57;;;11.40;99.90;;;11.76;100.00;101687.06;5073383;28;20089;-73
2023/02/17 10:00:07;;;;;;;31.85;13.98;;;11.50;99.90;;;11.69;100.00;101693.19;5072870;28;20039;-72
2023/02/17 10:02:49;;;;;;;28.30;14.45;;;11.50;99.90;;;11.74;100.00;101686.16;5071966;28;20109;-70
2023/02/17 10:05:23;;;;;;;27.95;13.20;;;11.50;99.90;;;11.85;100.00;101710.06;5071495;28;20048;-71
2023/02/17 10:07:57;;;;;;;28.58;13.98;;;11.50;99.90;;;11.82;100.00;101712.69;5072494;28;20032;-70
2023/02/17 10:10:31;;;;;;;26.02;12.57;;;11.60;99.90;;;11.81;100.00;101718.00;5071430;28;20067;-65
2023/02/17 10:13:02;;;;;;;27.80;12.70;;;11.60;99.90;;;11.72;100.00;101687.94;5072518;28;20033;-79